Data for 10/27/2005

Time Sea-Level Adjusted Pressure Absolute Pressure Temperature Relative Humidity Dew Point   
(mb) (inHg) (mb) (inHg) (C) (F) (%) (C) (F)
00:05 1014 29.94 844 24.92 13.5 56.4 40 0.2 32.3
00:10 1014 29.94 844 24.92 13.7 56.7 38 -0.1 31.8
00:15 1014 29.94 844 24.92 14 57.2 38 -0 32
00:20 1014 29.94 843 24.89 14.2 57.5 39 0.3 32.6
00:25 1014 29.94 843 24.89 14 57.1 40 0.5 32.9
00:30 1014 29.94 843 24.89 14.2 57.6 39 0.6 33.1
00:35 1014 29.94 843 24.89 14.4 57.9 40 0.9 33.6
00:40 1014 29.94 843 24.89 14 57.2 41 1.1 34
00:45 1014 29.94 843 24.89 13.7 56.7 43 1.4 34.6
00:50 1014 29.94 843 24.89 13.6 56.5 43 1.3 34.3
00:55 1014 29.94 844 24.92 13.4 56.2 42 1 33.8
01:00 1014 29.94 843 24.89 13.7 56.7 42 1.2 34.1
01:05 1014 29.94 843 24.89 13.6 56.5 44 1.6 34.9
01:10 1014 29.94 843 24.89 13.4 56.1 46 2.1 35.8
01:15 1014 29.94 843 24.89 13 55.3 48 2.2 36
01:20 1014 29.94 843 24.89 12.6 54.7 50 2.5 36.5
01:25 1014 29.94 843 24.89 12.5 54.5 49 2.2 36
01:30 1014 29.94 843 24.89 12.7 54.8 50 2.6 36.7
01:35 1014 29.94 843 24.89 12.4 54.3 51 2.7 36.9
01:40 1014 29.94 843 24.89 12.2 54 52 2.8 37
01:45 1014 29.94 843 24.89 12.2 53.9 52 2.6 36.6
01:50 1014 29.94 843 24.89 12.1 53.9 53 2.8 37.1
01:55 1014 29.94 843 24.89 11.9 53.4 54 2.8 37.1
02:00 1014 29.94 843 24.89 11.9 53.4 53 2.6 36.7
02:05 1014 29.94 843 24.89 12.1 53.8 52 2.6 36.7
02:10 1014 29.94 843 24.89 12.2 54 52 2.8 37
02:15 1014 29.94 843 24.89 12.1 53.7 53 3 37.3
02:20 1014 29.94 843 24.89 11.6 52.8 54 2.6 36.7
02:25 1014 29.94 843 24.89 11.4 52.6 55 2.8 37.1
02:30 1014 29.94 843 24.89 11.6 52.9 55 2.9 37.2
02:35 1014 29.94 843 24.89 11.7 53.1 55 3 37.4
02:40 1014 29.94 844 24.92 11.8 53.3 54 2.9 37.2
02:45 1014 29.94 844 24.92 11.7 53 55 3 37.5
02:50 1014 29.94 844 24.92 11.4 52.6 56 3.1 37.6
02:55 1015 29.97 844 24.92 11.5 52.7 56 3.1 37.6
03:00 1015 29.97 844 24.92 11.6 52.9 55 3 37.4
03:05 1015 29.97 844 24.92 11.7 53.1 55 2.9 37.3
03:10 1015 29.97 844 24.92 11.9 53.4 55 3.1 37.5
03:15 1015 29.97 844 24.92 11.9 53.5 55 3.3 38
03:20 1015 29.97 844 24.92 11.9 53.4 58 3.8 38.9
03:25 1015 29.97 844 24.92 11.5 52.7 61 4.3 39.7
03:30 1015 29.97 844 24.92 11.2 52.2 64 4.6 40.3
03:35 1015 29.97 844 24.92 10.9 51.6 66 4.8 40.6
03:40 1015 29.97 844 24.92 10.8 51.4 66 4.8 40.6
03:45 1015 29.97 844 24.92 10.6 51 66 4.6 40.3
03:50 1015 29.97 844 24.92 10.5 51 66 4.4 39.9
03:55 1015 29.97 844 24.92 10.6 51 65 4.3 39.8
04:00 1015 29.97 844 24.92 10.6 51.1 66 4.5 40.2
04:05 1015 29.97 844 24.92 10.4 50.7 67 4.6 40.3
04:10 1015 29.97 844 24.92 10.2 50.3 67 4.4 40
04:15 1015 29.97 844 24.92 10.1 50.1 67 4.3 39.8
04:20 1015 29.97 844 24.92 10.2 50.3 67 4.3 39.7
04:25 1015 29.97 844 24.92 10.2 50.3 67 4.3 39.7
04:30 1015 29.97 844 24.92 10.2 50.3 66 4.2 39.6
04:35 1015 29.97 844 24.92 10.4 50.7 65 4.2 39.5
04:40 1014 29.94 844 24.92 10.3 50.6 66 4.3 39.7
04:45 1014 29.94 844 24.92 10.1 50.2 67 4.3 39.7
04:50 1014 29.94 844 24.92 10 50 67 4.1 39.5
04:55 1014 29.94 843 24.89 10 49.9 66 4 39.2
05:00 1014 29.94 843 24.89 10 50 65 3.8 38.8
05:05 1014 29.94 843 24.89 10.1 50.1 65 3.8 38.9
05:10 1014 29.94 843 24.89 10 50 67 4.1 39.4
05:15 1014 29.94 843 24.89 9.7 49.5 68 4.2 39.6
05:20 1014 29.94 843 24.89 9.5 49 70 4.3 39.8
05:25 1014 29.94 843 24.89 9.3 48.8 71 4.4 40
05:30 1014 29.94 843 24.89 9.2 48.6 72 4.4 39.9
05:35 1014 29.94 843 24.89 9.3 48.7 71 4.3 39.8
05:40 1014 29.94 843 24.89 9.4 49 71 4.5 40.1
05:45 1014 29.94 844 24.92 9.5 49.1 73 4.9 40.8
05:50 1015 29.97 844 24.92 9.3 48.7 75 5.1 41.2
05:55 1015 29.97 844 24.92 9.1 48.4 76 5.2 41.4
06:00 1015 29.97 844 24.92 8.8 47.8 81 5.7 42.3
06:05 1015 29.97 844 24.92 8.4 47.2 83 5.7 42.2
06:10 1015 29.97 844 24.92 8.6 47.4 82 5.6 42.1
06:15 1014 29.94 844 24.92 8.8 47.9 79 5.4 41.7
06:20 1014 29.94 843 24.89 8.7 47.6 83 5.9 42.5
06:25 1014 29.94 843 24.89 8.5 47.3 84 5.9 42.7
06:30 1014 29.94 843 24.89 8.3 47 85 5.9 42.6
06:35 1014 29.94 843 24.89 8.4 47.2 83 5.8 42.5
06:40 1014 29.94 843 24.89 8.2 46.8 85 5.8 42.5
06:45 1014 29.94 843 24.89 8.3 47 81 5.2 41.4
06:50 1014 29.94 843 24.89 8.4 47.1 83 5.6 42.1
06:55 1014 29.94 843 24.89 8.3 47 79 5 41
07:00 1014 29.94 843 24.89 9 48.1 73 4.3 39.8
07:05 1014 29.94 843 24.89 9.5 49.1 74 5.1 41.2
07:10 1014 29.94 843 24.89 9.4 48.8 72 4.5 40.2
07:15 1014 29.94 843 24.89 9.6 49.2 69 4.3 39.7
07:20 1014 29.94 843 24.89 9.8 49.6 69 4.4 39.8
07:25 1014 29.94 843 24.89 9.7 49.5 68 4.2 39.6
07:30 1014 29.94 843 24.89 9.6 49.2 69 4.2 39.6
07:35 1014 29.94 843 24.89 9.6 49.2 68 4 39.3
07:40 1014 29.94 843 24.89 9.7 49.4 68 4.2 39.5
07:45 1014 29.94 843 24.89 9.7 49.5 69 4.4 39.9
07:50 1014 29.94 843 24.89 9.7 49.5 69 4.4 39.9
07:55 1014 29.94 843 24.89 9.6 49.3 71 4.5 40.2
08:00 1014 29.94 843 24.89 9.6 49.3 66 3.7 38.7
08:05 1014 29.94 843 24.89 9.8 49.7 70 4.7 40.4
08:10 1014 29.94 843 24.89 9.6 49.2 70 4.4 40
08:15 1014 29.94 843 24.89 9.5 49.2 73 4.9 40.9
08:20 1014 29.94 843 24.89 9.3 48.7 75 5.1 41.1
08:25 1014 29.94 843 24.89 9.1 48.4 76 5 41.1
08:30 1014 29.94 843 24.89 9 48.3 77 5.2 41.3
08:35 1014 29.94 843 24.89 9.1 48.3 76 5.1 41.2
08:40 1014 29.94 843 24.89 9.1 48.3 76 5.2 41.3
08:45 1014 29.94 843 24.89 9.1 48.3 76 5.1 41.2
08:50 1014 29.94 843 24.89 9.1 48.3 76 5.1 41.2
08:55 1014 29.94 843 24.89 9.1 48.3 76 5 41
09:00 1014 29.94 843 24.89 9.1 48.4 76 5.2 41.3
09:05 1014 29.94 843 24.89 9 48.2 76 5.1 41.2
09:10 1014 29.94 843 24.89 9.1 48.4 76 5.1 41.3
09:15 1014 29.94 843 24.89 9.1 48.4 76 5.1 41.2
09:20 1014 29.94 843 24.89 9.2 48.6 76 5.2 41.3
09:25 1014 29.94 843 24.89 9.2 48.5 76 5.2 41.4
09:30 1014 29.94 843 24.89 9.1 48.4 75 5 40.9
09:35 1014 29.94 843 24.89 9.2 48.6 75 5.1 41.1
09:40 1014 29.94 843 24.89 9.4 48.9 74 4.9 40.9
09:45 1014 29.94 843 24.89 9.4 49 74 5.1 41.1
09:50 1014 29.94 843 24.89 9.5 49.1 75 5.3 41.5
09:55 1014 29.94 843 24.89 9.5 49 77 5.6 42.1
10:00 1014 29.94 843 24.89 9.5 49.1 75 5.4 41.7
10:05 1014 29.94 843 24.89 9.6 49.2 76 5.5 41.9
10:10 1014 29.94 843 24.89 9.6 49.3 75 5.4 41.7
10:15 1014 29.94 843 24.89 9.7 49.5 75 5.5 41.9
10:20 1014 29.94 843 24.89 9.7 49.5 76 5.7 42.2
10:25 1014 29.94 843 24.89 9.8 49.6 75 5.6 42.2
10:30 1014 29.94 843 24.89 9.7 49.5 75 5.6 42
10:35 1014 29.94 843 24.89 9.9 49.8 75 5.7 42.3
10:40 1014 29.94 843 24.89 9.9 49.8 77 6 42.7
10:45 1014 29.94 843 24.89 9.8 49.6 76 5.8 42.5
10:50 1014 29.94 843 24.89 9.9 49.8 78 6.2 43.1
10:55 1014 29.94 843 24.89 10 49.9 77 6.2 43.1
11:00 1014 29.94 843 24.89 10.1 50.2 74 5.8 42.4
11:05 1014 29.94 843 24.89 10.3 50.5 74 5.9 42.6
11:10 1014 29.94 843 24.89 10.5 50.8 74 6 42.8
11:15 1014 29.94 843 24.89 10.6 51 73 5.9 42.6
11:20 1014 29.94 843 24.89 10.6 51.1 73 5.9 42.7
11:25 1014 29.94 843 24.89 10.6 51 73 6 42.7
11:30 1014 29.94 843 24.89 10.5 51 73 5.8 42.5
11:35 1014 29.94 843 24.89 10.5 50.9 73 6 42.7
11:40 1014 29.94 843 24.89 10.5 50.8 73 5.9 42.6
11:45 1014 29.94 843 24.89 10.6 51.1 74 6.3 43.3
11:50 1014 29.94 843 24.89 10.5 50.9 74 6.2 43.1
11:55 1014 29.94 843 24.89 10.5 51 72 5.8 42.5
12:00 1014 29.94 843 24.89 10.8 51.4 72 6 42.9
12:05 1014 29.94 843 24.89 11 51.7 71 5.9 42.5
12:10 1014 29.94 843 24.89 11.1 51.9 71 6 42.8
12:15 1014 29.94 843 24.89 11.3 52.3 68 5.6 42.1
12:20 1014 29.94 843 24.89 11.5 52.8 66 5.4 41.7
12:25 1014 29.94 843 24.89 11.5 52.7 66 5.5 41.9
12:30 1014 29.94 843 24.89 11.9 53.3 62 4.8 40.7
12:35 1013 29.91 843 24.89 12.2 54 61 5 40.9
12:40 1013 29.91 842 24.86 12.4 54.3 61 5.1 41.2
12:45 1013 29.91 842 24.86 13 55.3 58 5 40.9
12:50 1013 29.91 842 24.86 13.4 56.1 59 5.5 42
12:55 1013 29.91 842 24.86 13.9 57 51 3.9 39.1
13:00 1013 29.91 842 24.86 14.1 57.3 52 4.6 40.2
13:05 1013 29.91 842 24.86 14.7 58.5 49 4.1 39.4
13:10 1013 29.91 842 24.86 15.7 60.2 45 4 39.1
13:15 1013 29.91 842 24.86 15.8 60.4 45 4 39.1
13:20 1013 29.91 842 24.86 15.1 59.2 49 4.7 40.4
13:25 1013 29.91 842 24.86 14.4 57.9 54 5.3 41.5
13:30 1013 29.91 842 24.86 14.7 58.5 45 3 37.4
13:35 1013 29.91 842 24.86 15 59 45 3.4 38.1
13:40 1012 29.88 842 24.86 15.2 59.4 41 2.3 36.1
13:45 1012 29.88 842 24.86 15.5 59.8 40 2 35.6
13:50 1012 29.88 842 24.86 15.8 60.5 39 2.1 35.8
13:55 1012 29.88 842 24.86 15.3 59.6 41 2.4 36.2
14:00 1012 29.88 842 24.86 15.2 59.3 40 1.9 35.4
14:05 1012 29.88 841 24.83 15.5 59.8 38 1.3 34.4
14:10 1012 29.88 842 24.86 15.6 60.1 37 1.2 34.2
14:15 1012 29.88 841 24.83 15.5 59.9 37 1.1 33.9
14:20 1012 29.88 841 24.83 15.8 60.5 35 0.4 32.8
14:25 1012 29.88 841 24.83 16.5 61.8 33 0.5 32.9
14:30 1012 29.88 841 24.83 16.4 61.6 33 0.1 32.2
14:35 1012 29.88 841 24.83 16.3 61.3 34 0.4 32.7
14:40 1012 29.88 841 24.83 16 60.8 33 0 32
14:45 1012 29.88 841 24.83 16.5 61.6 34 0.8 33.4
14:50 1012 29.88 841 24.83 15.6 60.1 35 0.5 32.9
14:55 1012 29.88 841 24.83 15.3 59.5 35 0.1 32.1
15:00 1012 29.88 841 24.83 15.2 59.3 35 -0.1 31.8
15:05 1012 29.88 841 24.83 15.4 59.7 36 0.4 32.7
15:10 1012 29.88 841 24.83 15.8 60.5 35 0.3 32.6
15:15 1012 29.88 841 24.83 16.4 61.6 33 0.2 32.4
15:20 1012 29.88 841 24.83 16.3 61.3 34 0.5 32.8
15:25 1012 29.88 841 24.83 16.3 61.4 33 0.3 32.5
15:30 1012 29.88 841 24.83 15.5 59.9 34 -0.3 31.5
15:35 1012 29.88 841 24.83 16.2 61.2 34 0.6 33.1
15:40 1012 29.88 841 24.83 16.1 60.9 34 0.3 32.5
15:45 1012 29.88 841 24.83 16.4 61.5 33 0.4 32.6
15:50 1012 29.88 841 24.83 16.5 61.8 33 0.5 32.9
15:55 1012 29.88 841 24.83 16.6 61.9 33 0.5 33
16:00 1012 29.88 841 24.83 16.6 61.8 33 0.5 33
16:05 1012 29.88 841 24.83 16.5 61.7 33 0.4 32.8
16:10 1012 29.88 841 24.83 16.2 61.2 34 0.3 32.5
16:15 1012 29.88 841 24.83 16.1 61.1 34 0.4 32.7
16:20 1012 29.88 841 24.83 16.3 61.3 34 0.4 32.8
16:25 1012 29.88 841 24.83 16.4 61.6 34 0.5 32.9
16:30 1012 29.88 841 24.83 16.4 61.4 34 0.4 32.7
16:35 1012 29.88 841 24.83 16.6 61.9 33 0.2 32.4
16:40 1012 29.88 841 24.83 16.3 61.3 34 0.4 32.7
16:45 1012 29.88 841 24.83 15.9 60.5 34 0.1 32.2
16:50 1012 29.88 841 24.83 16.3 61.4 33 0.2 32.4
16:55 1012 29.88 841 24.83 16.9 62.4 32 0.1 32.1
17:00 1012 29.88 841 24.83 17 62.6 33 0.6 33
17:05 1012 29.88 841 24.83 16.6 61.8 33 0.4 32.8
17:10 1012 29.88 841 24.83 16 60.7 34 0.2 32.4
17:15 1012 29.88 841 24.83 15.5 59.9 34 -0.2 31.6
17:20 1012 29.88 841 24.83 15.7 60.2 35 0.2 32.4
17:25 1012 29.88 841 24.83 15.6 60.1 35 0.3 32.5
17:30 1012 29.88 841 24.83 15.5 59.9 35 0 32
17:35 1012 29.88 841 24.83 15.3 59.5 35 0.1 32.1
17:40 1012 29.88 841 24.83 15.2 59.3 36 0.3 32.5
17:45 1012 29.88 841 24.83 15 59 36 0.2 32.3
17:50 1012 29.88 841 24.83 15 58.9 37 0.6 33.1
17:55 1012 29.88 841 24.83 14.8 58.6 38 0.6 33
18:00 1012 29.88 841 24.83 14.6 58.3 39 0.8 33.4
18:05 1012 29.88 841 24.83 14.4 58 41 1.3 34.4
18:10 1012 29.88 841 24.83 14.3 57.7 40 0.8 33.5
18:15 1012 29.88 841 24.83 14.1 57.4 40 0.9 33.6
18:20 1012 29.88 841 24.83 13.6 56.5 41 0.6 33
18:25 1012 29.88 841 24.83 13.6 56.4 41 0.8 33.4
18:30 1012 29.88 841 24.83 13.4 56.2 42 0.9 33.6
18:35 1012 29.88 841 24.83 13.2 55.7 43 0.9 33.7
18:40 1012 29.88 841 24.83 12.8 55 45 1.3 34.3
18:45 1012 29.88 841 24.83 12.4 54.3 48 1.8 35.2
18:50 1012 29.88 841 24.83 12.2 53.9 48 1.4 34.6
18:55 1012 29.88 841 24.83 12.3 54.1 48 1.5 34.8
19:00 1012 29.88 841 24.83 12.4 54.4 47 1.6 34.9
19:05 1012 29.88 841 24.83 12.3 54.2 48 1.7 35.1
19:10 1012 29.88 841 24.83 12.3 54.1 48 1.8 35.2
19:15 1012 29.88 841 24.83 12.2 53.9 49 2 35.5
19:20 1012 29.88 841 24.83 12.1 53.9 48 1.5 34.8
19:25 1012 29.88 842 24.86 12.3 54.2 49 1.9 35.5
19:30 1012 29.88 842 24.86 11.7 53 53 2.6 36.6
19:35 1012 29.88 842 24.86 11.4 52.5 53 2.1 35.7
19:40 1012 29.88 842 24.86 11.3 52.3 51 1.5 34.8
19:45 1012 29.88 842 24.86 11.4 52.5 51 1.6 34.8
19:50 1012 29.88 842 24.86 11.3 52.3 53 2 35.6
19:55 1012 29.88 842 24.86 11 51.7 51 1.4 34.5
20:00 1012 29.88 842 24.86 11.3 52.4 51 1.6 34.9
20:05 1013 29.91 842 24.86 11.5 52.8 50 1.5 34.7
20:10 1013 29.91 842 24.86 11.5 52.8 48 1 33.8
20:15 1013 29.91 842 24.86 11.8 53.2 48 1.1 34
20:20 1012 29.88 842 24.86 11.8 53.3 47 0.9 33.7
20:25 1012 29.88 842 24.86 11.8 53.3 49 1.5 34.7
20:30 1012 29.88 842 24.86 11.6 52.8 50 1.6 34.9
20:35 1012 29.88 842 24.86 11.3 52.3 52 1.7 35.1
20:40 1013 29.91 842 24.86 11.2 52.1 50 1.3 34.4
20:45 1012 29.88 842 24.86 11.1 52.1 52 1.8 35.2
20:50 1012 29.88 842 24.86 11.1 52 53 2 35.6
20:55 1013 29.91 842 24.86 10.9 51.6 54 2 35.5
21:00 1013 29.91 842 24.86 10.8 51.5 54 1.9 35.4
21:05 1013 29.91 842 24.86 10.7 51.3 55 2.2 35.9
21:10 1013 29.91 842 24.86 10.6 51.1 56 2.3 36.2
21:15 1013 29.91 842 24.86 10.5 50.8 57 2.3 36.1
21:20 1013 29.91 842 24.86 10.4 50.7 57 2.2 35.9
21:25 1013 29.91 842 24.86 10.5 50.8 57 2.2 36
21:30 1013 29.91 842 24.86 10.6 51.1 54 1.9 35.3
21:35 1013 29.91 842 24.86 10.8 51.4 55 2.1 35.8
21:40 1013 29.91 842 24.86 10.7 51.3 53 1.7 35.1
21:45 1013 29.91 842 24.86 11.1 51.9 54 2.1 35.7
21:50 1013 29.91 842 24.86 11.1 51.9 54 2.2 36
21:55 1013 29.91 842 24.86 11.1 52 54 2.3 36.1
22:00 1013 29.91 842 24.86 11.2 52.1 54 2.2 36
22:05 1013 29.91 842 24.86 11.3 52.3 54 2.3 36.1
22:10 1013 29.91 842 24.86 11.3 52.3 53 2.1 35.8
22:15 1013 29.91 842 24.86 11.3 52.3 54 2.3 36.1
22:20 1013 29.91 842 24.86 11.2 52.2 54 2.3 36.1
22:25 1013 29.91 842 24.86 11.2 52.2 55 2.6 36.7
22:30 1013 29.91 842 24.86 11.1 52 55 2.6 36.6
22:35 1013 29.91 842 24.86 11.1 52 56 2.7 36.9
22:40 1013 29.91 842 24.86 11 51.7 58 2.9 37.3
22:45 1013 29.91 842 24.86 10.9 51.6 58 3 37.4
22:50 1013 29.91 842 24.86 10.8 51.5 59 3.3 37.9
22:55 1013 29.91 842 24.86 10.9 51.5 60 3.5 38.3
23:00 1013 29.91 842 24.86 10.7 51.3 62 3.8 38.8
23:05 1013 29.91 842 24.86 10.6 51.2 64 4.2 39.5
23:10 1013 29.91 842 24.86 10.5 50.9 67 4.6 40.3
23:15 1013 29.91 842 24.86 10.3 50.5 70 5.2 41.3
23:20 1013 29.91 842 24.86 10 50 72 5.2 41.4
23:25 1013 29.91 842 24.86 9.8 49.6 73 5.2 41.4
23:30 1013 29.91 842 24.86 9.6 49.3 76 5.5 41.9
23:35 1013 29.91 842 24.86 9.4 48.9 78 5.7 42.3
23:40 1013 29.91 842 24.86 9.3 48.7 78 5.6 42.2
23:45 1012 29.88 842 24.86 9.1 48.4 79 5.6 42.1
23:50 1012 29.88 842 24.86 9.1 48.4 79 5.6 42.1
23:55 1012 29.88 842 24.86 9.1 48.4 79 5.7 42.3
24:00 1012 29.88 842 24.86 9.1 48.4 76 5 41.1